HomeShort term forecast

Short term forecast

Graphical weather forecast for for Montreal:

Short term forecast

The above graphic is automatically refreshed every 3 hours.

Hourly Experimental Weather Forecast for the next 72 hours ®


 Date & Hour   Temp   Feel   Baro   Hum   Speed & Bearing   Wind Gust   Precip.%   Precip.   Visibility   Cloud cover   Conditions 
 24/04/2024 - 06:00  9.1°C  7.1°C  1005.8 hPa  92%  13.2 km/h   27.6 km/h  52%  0.86 mm/h  9.1 km  99%  Drizzle 
 24/04/2024 - 07:00  9.2°C  7.1°C  1006.0 hPa  93%  13.3 km/h   25.6 km/h  53%  0.85 mm/h  8.8 km  99%  Drizzle 
 24/04/2024 - 08:00  8.9°C  6.8°C  1006.4 hPa  92%  13.6 km/h   24.5 km/h  50%  0.92 mm/h  8.8 km  99%  Rain 
 24/04/2024 - 09:00  6.4°C  2.6°C  1008.0 hPa  82%  22.4 km/h   43.1 km/h  41%  0.70 mm/h  15.2 km  99%  Drizzle 
 24/04/2024 - 10:00  4.8°C  0.7°C  1009.8 hPa  79%  21.6 km/h   41.2 km/h  31%  --  13.1 km  100%  Drizzle 
 24/04/2024 - 11:00  4.3°C  0.2°C  1011.3 hPa  72%  19.6 km/h   38.1 km/h  23%  --  15.6 km  99%  Cloudy sky 
 24/04/2024 - 12:00  4.0°C  0.0°C  1012.8 hPa  69%  18.4 km/h   35.9 km/h  18%  --  22.9 km  94%  Cloudy sky 
 24/04/2024 - 13:00  4.7°C  1.1°C  1013.7 hPa  62%  17.0 km/h   31.2 km/h  13%  --  23.3 km  90%  Cloudy sky 
 24/04/2024 - 14:00  6.1°C  2.7°C  1014.5 hPa  51%  17.3 km/h   32.2 km/h  5%  --  25.6 km  65%  Mostly cloudy 
 24/04/2024 - 15:00  7.1°C  3.9°C  1015.4 hPa  42%  18.6 km/h   35.8 km/h  0%  --  31.0 km  36%  Mostly clear 
 24/04/2024 - 16:00  7.4°C  4.0°C  1016.3 hPa  37%  20.6 km/h   37.6 km/h  0%  --  32.3 km  26%  Mostly clear 
 24/04/2024 - 17:00  6.9°C  3.3°C  1017.5 hPa  34%  21.4 km/h   39.1 km/h  0%  --  33.5 km  14%  Mostly clear 
 24/04/2024 - 18:00  5.9°C  2.2°C  1018.9 hPa  34%  20.2 km/h   38.2 km/h  0%  --  33.5 km  7%  Clear sky 
 24/04/2024 - 19:00  4.7°C  1.0°C  1020.3 hPa  36%  17.3 km/h   36.3 km/h  0%  --  32.9 km  1%  Clear sky 
 24/04/2024 - 20:00  3.9°C  0.4°C  1021.5 hPa  36%  14.5 km/h   33.1 km/h  0%  --  32.1 km  0%  Clear sky 
 24/04/2024 - 21:00  2.4°C  -1.0°C  1022.7 hPa  39%  12.4 km/h   30.9 km/h  0%  --  32.0 km  0%  Clear sky 
 24/04/2024 - 22:00  1.5°C  -1.7°C  1023.6 hPa  43%  10.9 km/h   25.1 km/h  0%  --  31.8 km  0%  Clear sky 
 24/04/2024 - 23:00  0.7°C  -2.2°C  1024.2 hPa  46%  9.2 km/h   20.4 km/h  0%  --  30.8 km  0%  Clear sky 
 25/04/2024 - 00:00  0.2°C  -2.8°C  1024.8 hPa  49%  8.9 km/h   19.7 km/h  0%  --  30.7 km  0%  Clear sky 
 25/04/2024 - 01:00  -0.2°C  -3.3°C  1025.3 hPa  51%  9.1 km/h   19.3 km/h  0%  --  30.4 km  0%  Clear sky 
 25/04/2024 - 02:00  -0.7°C  -3.9°C  1025.7 hPa  53%  8.9 km/h   17.2 km/h  0%  --  30.4 km  0%  Clear sky 
 25/04/2024 - 03:00  -1.1°C  -4.2°C  1026.2 hPa  56%  8.5 km/h   14.8 km/h  0%  --  30.0 km  0%  Clear sky 
 25/04/2024 - 04:00  -1.5°C  -4.5°C  1026.6 hPa  58%  7.9 km/h   12.8 km/h  0%  --  29.8 km  0%  Clear sky 
 25/04/2024 - 05:00  -1.8°C  -4.6°C  1027.2 hPa  60%  7.3 km/h   12.6 km/h  0%  --  29.5 km  0%  Clear sky 
 25/04/2024 - 06:00  -2.0°C  -4.8°C  1028.0 hPa  61%  7.0 km/h   12.6 km/h  0%  --  29.1 km  0%  Clear sky 
 25/04/2024 - 07:00  -1.5°C  -4.4°C  1028.9 hPa  61%  7.6 km/h   14.6 km/h  0%  --  29.1 km  10%  Clear sky 
 25/04/2024 - 08:00  -0.7°C  -3.5°C  1029.6 hPa  56%  7.9 km/h   15.4 km/h  0%  --  29.8 km  12%  Clear sky 
 25/04/2024 - 09:00  0.5°C  -1.6°C  1029.9 hPa  50%  6.4 km/h   14.7 km/h  0%  --  30.2 km  14%  Mostly clear 
 25/04/2024 - 10:00  1.8°C  0.3°C  1030.2 hPa  46%  5.4 km/h   15.4 km/h  0%  --  30.4 km  9%  Clear sky 
 25/04/2024 - 11:00  3.4°C  1.8°C  1030.2 hPa  43%  6.2 km/h   18.3 km/h  0%  --  31.1 km  4%  Clear sky 
 25/04/2024 - 12:00  4.7°C  2.9°C  1029.9 hPa  40%  7.8 km/h   20.7 km/h  0%  --  31.3 km  7%  Clear sky 
 25/04/2024 - 13:00  6.1°C  4.1°C  1029.2 hPa  37%  9.5 km/h   22.8 km/h  0%  --  31.3 km  5%  Clear sky 
 25/04/2024 - 14:00  7.5°C  5.5°C  1028.5 hPa  35%  10.8 km/h   25.2 km/h  0%  --  30.3 km  12%  Clear sky 
 25/04/2024 - 15:00  8.6°C  6.6°C  1027.9 hPa  33%  12.1 km/h   28.2 km/h  0%  --  29.7 km  24%  Mostly clear 
 25/04/2024 - 16:00  9.4°C  7.4°C  1027.3 hPa  32%  13.0 km/h   30.5 km/h  0%  --  27.8 km  36%  Mostly clear 
 25/04/2024 - 17:00  9.9°C  7.9°C  1026.9 hPa  32%  13.7 km/h   30.9 km/h  0%  --  28.5 km  31%  Mostly clear 
 25/04/2024 - 18:00  10.0°C  8.1°C  1026.9 hPa  33%  13.1 km/h   28.6 km/h  0%  --  31.2 km  14%  Mostly clear 
 25/04/2024 - 19:00  9.2°C  7.5°C  1027.2 hPa  36%  11.0 km/h   26.1 km/h  0%  --  31.1 km  1%  Clear sky 
 25/04/2024 - 20:00  7.7°C  6.2°C  1027.6 hPa  42%  8.7 km/h   23.6 km/h  0%  --  30.1 km  1%  Clear sky 
 25/04/2024 - 21:00  6.6°C  5.2°C  1028.3 hPa  46%  7.5 km/h   18.7 km/h  0%  --  29.6 km  0%  Clear sky 
 25/04/2024 - 22:00  5.6°C  4.1°C  1028.8 hPa  50%  7.0 km/h   14.9 km/h  0%  --  29.5 km  1%  Clear sky 
 25/04/2024 - 23:00  4.6°C  3.0°C  1029.1 hPa  54%  6.6 km/h   12.1 km/h  0%  --  29.2 km  2%  Clear sky 
 26/04/2024 - 00:00  3.9°C  2.6°C  1029.5 hPa  58%  5.7 km/h   9.8 km/h  0%  --  28.8 km  3%  Clear sky 
 26/04/2024 - 01:00  3.3°C  2.1°C  1029.8 hPa  60%  5.1 km/h   9.8 km/h  0%  --  28.4 km  3%  Clear sky 
 26/04/2024 - 02:00  2.7°C  1.5°C  1030.0 hPa  62%  5.0 km/h   11.2 km/h  0%  --  28.3 km  3%  Clear sky 
 26/04/2024 - 03:00  2.1°C  1.2°C  1030.3 hPa  65%  4.5 km/h   9.9 km/h  0%  --  28.0 km  2%  Clear sky 
 26/04/2024 - 04:00  1.5°C  0.6°C  1030.8 hPa  69%  4.4 km/h   7.9 km/h  0%  --  27.9 km  2%  Clear sky 
 26/04/2024 - 05:00  1.1°C  0.2°C  1031.2 hPa  72%  4.5 km/h   8.2 km/h  0%  --  27.7 km  1%  Clear sky 
 26/04/2024 - 06:00  1.4°C  0.6°C  1031.8 hPa  72%  3.8 km/h   8.0 km/h  0%  --  27.4 km  2%  Clear sky 
 26/04/2024 - 07:00  1.9°C  1.0°C  1032.4 hPa  71%  3.6 km/h   9.2 km/h  0%  --  27.5 km  2%  Clear sky 
 26/04/2024 - 08:00  3.1°C  2.2°C  1032.9 hPa  67%  3.7 km/h   11.6 km/h  0%  --  27.8 km  5%  Clear sky 
 26/04/2024 - 09:00  5.2°C  4.2°C  1033.2 hPa  58%  5.0 km/h   13.6 km/h  0%  --  28.9 km  3%  Clear sky 
 26/04/2024 - 10:00  7.6°C  6.5°C  1033.2 hPa  48%  6.1 km/h   15.6 km/h  0%  --  29.8 km  3%  Clear sky 
 26/04/2024 - 11:00  9.5°C  8.3°C  1033.1 hPa  42%  6.8 km/h   17.0 km/h  0%  --  31.0 km  1%  Clear sky 
 26/04/2024 - 12:00  10.8°C  9.6°C  1032.9 hPa  38%  7.2 km/h   18.2 km/h  0%  --  31.2 km  4%  Clear sky 
 26/04/2024 - 13:00  12.1°C  10.9°C  1032.5 hPa  35%  7.5 km/h   19.5 km/h  0%  --  31.4 km  10%  Clear sky 
 26/04/2024 - 14:00  13.1°C  11.8°C  1032.1 hPa  34%  7.7 km/h   20.0 km/h  0%  --  31.4 km  6%  Clear sky 
 26/04/2024 - 15:00  13.8°C  12.5°C  1031.7 hPa  33%  7.6 km/h   19.2 km/h  0%  --  31.4 km  1%  Clear sky 
 26/04/2024 - 16:00  14.4°C  13.0°C  1031.1 hPa  32%  7.3 km/h   17.9 km/h  0%  --  31.5 km  1%  Clear sky 
 26/04/2024 - 17:00  14.6°C  13.3°C  1030.8 hPa  33%  7.1 km/h   16.1 km/h  0%  --  31.5 km  0%  Clear sky 
 26/04/2024 - 18:00  14.1°C  12.8°C  1030.6 hPa  34%  7.3 km/h   14.7 km/h  0%  --  31.4 km  0%  Clear sky 
 26/04/2024 - 19:00  13.1°C  11.9°C  1030.6 hPa  40%  7.0 km/h   12.8 km/h  0%  --  31.0 km  0%  Clear sky 
 26/04/2024 - 20:00  11.6°C  10.5°C  1030.6 hPa  44%  7.0 km/h   14.1 km/h  0%  --  30.1 km  0%  Clear sky 
 26/04/2024 - 21:00  10.6°C  9.5°C  1030.8 hPa  48%  7.1 km/h   14.9 km/h  0%  --  29.7 km  0%  Clear sky 
 26/04/2024 - 22:00  9.4°C  8.3°C  1030.8 hPa  50%  6.8 km/h   14.5 km/h  0%  --  29.8 km  0%  Clear sky 
 26/04/2024 - 23:00  8.2°C  7.2°C  1030.8 hPa  52%  7.0 km/h   15.6 km/h  0%  --  29.8 km  0%  Clear sky 
 27/04/2024 - 00:00  7.5°C  6.2°C  1030.8 hPa  55%  7.4 km/h   16.7 km/h  0%  --  29.9 km  0%  Clear sky 
 27/04/2024 - 01:00  6.6°C  5.3°C  1030.7 hPa  57%  7.1 km/h   15.4 km/h  0%  --  30.2 km  1%  Clear sky 
 27/04/2024 - 02:00  5.9°C  4.5°C  1030.5 hPa  60%  6.8 km/h   13.9 km/h  0%  --  29.8 km  1%  Clear sky 
 27/04/2024 - 03:00  5.2°C  3.7°C  1030.5 hPa  62%  6.8 km/h   13.6 km/h  0%  --  29.7 km  8%  Clear sky 
 27/04/2024 - 04:00  4.5°C  3.0°C  1030.4 hPa  64%  6.7 km/h   14.6 km/h  0%  --  29.8 km  13%  Mostly clear 
 27/04/2024 - 05:00  4.3°C  2.7°C  1030.5 hPa  66%  6.6 km/h   15.1 km/h  0%  --  29.7 km  4%  Clear sky 
 27/04/2024 - 06:00  4.7°C  3.2°C  1030.6 hPa  65%  6.5 km/h   16.3 km/h  0%  --  29.5 km  17%  Mostly clear 

Weather data sources : HRRR, GFS, Weatherkit, NOAA, Deutscher Wetterdienst, ECMWF and JMA

Never based important decision based on the weather forecast published on this website

 

Past weather and reports

Past weatherFind in this section the past weather conditions, weather archive, graphics, reports and statistics.

Current conditions

Current weather condition for MontrealAll you need to know about the current weather conditions for Montreal. Weather data is updated every 10 minutes.

Weather forecast

Current Montreal weatherSince 2004, celinium.com website has provided accurate weather forecast for Montreal's island.